sensor_id;sensor_type;location;lat;lon;timestamp;P1;durP1;ratioP1;P2;durP2;ratioP2
7977;SDS011;4034;48.004;10.902;2022-12-20T00:01:27;4.03;;;3.65;;
7977;SDS011;4034;48.004;10.902;2022-12-20T00:03:53;3.88;;;3.47;;
7977;SDS011;4034;48.004;10.902;2022-12-20T00:06:20;3.03;;;2.83;;
7977;SDS011;4034;48.004;10.902;2022-12-20T00:08:51;3.05;;;2.80;;
7977;SDS011;4034;48.004;10.902;2022-12-20T00:11:17;2.93;;;2.80;;
7977;SDS011;4034;48.004;10.902;2022-12-20T00:13:44;2.85;;;2.75;;
7977;SDS011;4034;48.004;10.902;2022-12-20T00:16:12;3.25;;;3.10;;
7977;SDS011;4034;48.004;10.902;2022-12-20T00:18:39;2.80;;;2.60;;
7977;SDS011;4034;48.004;10.902;2022-12-20T00:21:06;2.80;;;2.60;;
7977;SDS011;4034;48.004;10.902;2022-12-20T00:23:32;2.58;;;2.45;;
7977;SDS011;4034;48.004;10.902;2022-12-20T00:28:27;2.00;;;1.90;;
7977;SDS011;4034;48.004;10.902;2022-12-20T00:30:53;1.80;;;1.80;;
7977;SDS011;4034;48.004;10.902;2022-12-20T00:33:19;1.90;;;1.80;;
7977;SDS011;4034;48.004;10.902;2022-12-20T00:35:45;1.95;;;1.85;;
7977;SDS011;4034;48.004;10.902;2022-12-20T00:38:11;2.28;;;2.17;;
7977;SDS011;4034;48.004;10.902;2022-12-20T00:40:37;1.98;;;1.88;;
7977;SDS011;4034;48.004;10.902;2022-12-20T00:43:04;1.93;;;1.87;;
7977;SDS011;4034;48.004;10.902;2022-12-20T00:45:30;1.90;;;1.80;;
7977;SDS011;4034;48.004;10.902;2022-12-20T00:47:57;2.22;;;2.13;;
7977;SDS011;4034;48.004;10.902;2022-12-20T00:50:23;2.00;;;1.90;;
7977;SDS011;4034;48.004;10.902;2022-12-20T00:52:49;1.90;;;1.90;;
7977;SDS011;4034;48.004;10.902;2022-12-20T00:55:15;1.90;;;1.80;;
7977;SDS011;4034;48.004;10.902;2022-12-20T00:57:41;1.65;;;1.52;;
7977;SDS011;4034;48.004;10.902;2022-12-20T01:00:07;2.10;;;2.00;;
7977;SDS011;4034;48.004;10.902;2022-12-20T01:02:33;2.43;;;2.33;;
7977;SDS011;4034;48.004;10.902;2022-12-20T01:04:59;2.00;;;1.90;;
7977;SDS011;4034;48.004;10.902;2022-12-20T01:07:25;2.27;;;2.17;;
7977;SDS011;4034;48.004;10.902;2022-12-20T01:09:51;2.20;;;2.10;;
7977;SDS011;4034;48.004;10.902;2022-12-20T01:12:17;2.25;;;2.13;;
7977;SDS011;4034;48.004;10.902;2022-12-20T01:14:43;2.50;;;2.30;;
7977;SDS011;4034;48.004;10.902;2022-12-20T01:17:09;2.80;;;2.60;;
7977;SDS011;4034;48.004;10.902;2022-12-20T01:19:35;2.42;;;2.33;;
7977;SDS011;4034;48.004;10.902;2022-12-20T01:22:01;2.72;;;2.30;;
7977;SDS011;4034;48.004;10.902;2022-12-20T01:24:27;2.67;;;2.50;;
7977;SDS011;4034;48.004;10.902;2022-12-20T01:26:53;3.30;;;3.00;;
7977;SDS011;4034;48.004;10.902;2022-12-20T01:29:20;3.25;;;3.05;;
7977;SDS011;4034;48.004;10.902;2022-12-20T01:31:46;2.97;;;2.72;;
7977;SDS011;4034;48.004;10.902;2022-12-20T01:34:12;3.72;;;3.53;;
7977;SDS011;4034;48.004;10.902;2022-12-20T01:36:38;6.10;;;5.60;;
7977;SDS011;4034;48.004;10.902;2022-12-20T01:39:14;5.13;;;4.72;;
7977;SDS011;4034;48.004;10.902;2022-12-20T01:41:40;4.90;;;4.50;;
7977;SDS011;4034;48.004;10.902;2022-12-20T01:46:42;4.15;;;3.83;;
7977;SDS011;4034;48.004;10.902;2022-12-20T01:49:09;4.47;;;3.95;;
7977;SDS011;4034;48.004;10.902;2022-12-20T01:51:40;3.70;;;3.50;;
7977;SDS011;4034;48.004;10.902;2022-12-20T01:54:08;4.30;;;4.00;;
7977;SDS011;4034;48.004;10.902;2022-12-20T01:56:37;2.85;;;2.65;;
7977;SDS011;4034;48.004;10.902;2022-12-20T01:59:04;2.50;;;2.40;;
7977;SDS011;4034;48.004;10.902;2022-12-20T02:01:31;3.53;;;3.17;;
7977;SDS011;4034;48.004;10.902;2022-12-20T02:03:58;3.45;;;3.15;;
7977;SDS011;4034;48.004;10.902;2022-12-20T02:06:24;4.57;;;4.27;;
7977;SDS011;4034;48.004;10.902;2022-12-20T02:08:51;3.92;;;3.70;;
7977;SDS011;4034;48.004;10.902;2022-12-20T02:13:47;3.23;;;3.03;;
7977;SDS011;4034;48.004;10.902;2022-12-20T02:16:19;3.35;;;3.05;;
7977;SDS011;4034;48.004;10.902;2022-12-20T02:18:57;2.70;;;2.60;;
7977;SDS011;4034;48.004;10.902;2022-12-20T02:29:34;2.58;;;2.38;;
7977;SDS011;4034;48.004;10.902;2022-12-20T02:34:27;3.33;;;3.10;;
7977;SDS011;4034;48.004;10.902;2022-12-20T02:36:54;3.10;;;2.90;;
7977;SDS011;4034;48.004;10.902;2022-12-20T02:39:20;3.07;;;2.87;;
7977;SDS011;4034;48.004;10.902;2022-12-20T02:41:49;2.83;;;2.63;;
7977;SDS011;4034;48.004;10.902;2022-12-20T02:44:16;3.10;;;2.80;;
7977;SDS011;4034;48.004;10.902;2022-12-20T02:47:03;3.15;;;2.88;;
7977;SDS011;4034;48.004;10.902;2022-12-20T02:49:31;3.15;;;2.90;;
7977;SDS011;4034;48.004;10.902;2022-12-20T02:51:59;2.95;;;2.75;;
7977;SDS011;4034;48.004;10.902;2022-12-20T02:54:26;3.70;;;2.85;;
7977;SDS011;4034;48.004;10.902;2022-12-20T02:56:54;2.33;;;2.20;;
7977;SDS011;4034;48.004;10.902;2022-12-20T02:59:24;2.28;;;2.17;;
7977;SDS011;4034;48.004;10.902;2022-12-20T03:01:53;2.53;;;2.33;;
7977;SDS011;4034;48.004;10.902;2022-12-20T03:04:20;3.00;;;2.80;;
7977;SDS011;4034;48.004;10.902;2022-12-20T03:07:01;2.13;;;2.03;;
7977;SDS011;4034;48.004;10.902;2022-12-20T03:09:29;3.05;;;2.85;;
7977;SDS011;4034;48.004;10.902;2022-12-20T03:11:55;2.63;;;2.50;;
7977;SDS011;4034;48.004;10.902;2022-12-20T03:14:21;3.35;;;3.05;;
7977;SDS011;4034;48.004;10.902;2022-12-20T03:16:47;2.93;;;2.73;;
7977;SDS011;4034;48.004;10.902;2022-12-20T03:19:13;2.67;;;2.53;;
7977;SDS011;4034;48.004;10.902;2022-12-20T03:21:39;2.72;;;2.60;;
7977;SDS011;4034;48.004;10.902;2022-12-20T03:24:05;2.58;;;2.47;;
7977;SDS011;4034;48.004;10.902;2022-12-20T03:26:31;2.22;;;2.10;;
7977;SDS011;4034;48.004;10.902;2022-12-20T03:28:57;2.37;;;2.27;;
7977;SDS011;4034;48.004;10.902;2022-12-20T03:31:23;2.50;;;2.40;;
7977;SDS011;4034;48.004;10.902;2022-12-20T03:33:49;2.53;;;2.33;;
7977;SDS011;4034;48.004;10.902;2022-12-20T03:36:15;2.50;;;2.40;;
7977;SDS011;4034;48.004;10.902;2022-12-20T03:38:47;2.30;;;2.20;;
7977;SDS011;4034;48.004;10.902;2022-12-20T03:41:13;3.42;;;2.35;;
7977;SDS011;4034;48.004;10.902;2022-12-20T03:43:39;2.70;;;2.50;;
7977;SDS011;4034;48.004;10.902;2022-12-20T03:46:05;2.40;;;2.30;;
7977;SDS011;4034;48.004;10.902;2022-12-20T03:48:31;2.30;;;2.20;;
7977;SDS011;4034;48.004;10.902;2022-12-20T03:50:57;2.55;;;2.45;;
7977;SDS011;4034;48.004;10.902;2022-12-20T03:53:23;2.67;;;2.47;;
7977;SDS011;4034;48.004;10.902;2022-12-20T03:55:48;2.42;;;2.30;;
7977;SDS011;4034;48.004;10.902;2022-12-20T03:58:14;2.90;;;2.70;;
7977;SDS011;4034;48.004;10.902;2022-12-20T04:00:40;2.40;;;2.30;;
7977;SDS011;4034;48.004;10.902;2022-12-20T04:03:06;2.53;;;2.43;;
7977;SDS011;4034;48.004;10.902;2022-12-20T04:05:32;2.22;;;2.13;;
7977;SDS011;4034;48.004;10.902;2022-12-20T04:07:58;2.53;;;2.42;;
7977;SDS011;4034;48.004;10.902;2022-12-20T04:10:24;2.55;;;2.45;;
7977;SDS011;4034;48.004;10.902;2022-12-20T04:12:50;2.08;;;1.98;;
7977;SDS011;4034;48.004;10.902;2022-12-20T04:15:16;2.45;;;2.33;;
7977;SDS011;4034;48.004;10.902;2022-12-20T04:17:43;2.40;;;2.30;;
7977;SDS011;4034;48.004;10.902;2022-12-20T04:20:09;2.23;;;2.03;;
7977;SDS011;4034;48.004;10.902;2022-12-20T04:22:47;2.45;;;2.25;;
7977;SDS011;4034;48.004;10.902;2022-12-20T04:25:14;2.07;;;1.97;;
7977;SDS011;4034;48.004;10.902;2022-12-20T04:27:41;2.22;;;2.13;;
7977;SDS011;4034;48.004;10.902;2022-12-20T04:30:07;2.35;;;2.25;;
7977;SDS011;4034;48.004;10.902;2022-12-20T04:32:33;2.10;;;2.00;;
7977;SDS011;4034;48.004;10.902;2022-12-20T04:34:59;3.20;;;2.00;;
7977;SDS011;4034;48.004;10.902;2022-12-20T04:37:25;2.35;;;2.15;;
7977;SDS011;4034;48.004;10.902;2022-12-20T04:39:51;2.25;;;2.15;;
7977;SDS011;4034;48.004;10.902;2022-12-20T04:42:17;2.70;;;2.50;;
7977;SDS011;4034;48.004;10.902;2022-12-20T04:44:43;2.60;;;2.45;;
7977;SDS011;4034;48.004;10.902;2022-12-20T04:47:09;1.92;;;1.83;;
7977;SDS011;4034;48.004;10.902;2022-12-20T04:49:35;2.20;;;2.10;;
7977;SDS011;4034;48.004;10.902;2022-12-20T04:52:01;2.50;;;2.38;;
7977;SDS011;4034;48.004;10.902;2022-12-20T04:54:46;3.00;;;2.20;;
7977;SDS011;4034;48.004;10.902;2022-12-20T04:57:12;2.50;;;2.40;;
7977;SDS011;4034;48.004;10.902;2022-12-20T04:59:38;2.38;;;2.25;;
7977;SDS011;4034;48.004;10.902;2022-12-20T05:02:04;2.58;;;2.40;;
7977;SDS011;4034;48.004;10.902;2022-12-20T05:04:30;2.60;;;2.40;;
7977;SDS011;4034;48.004;10.902;2022-12-20T05:06:56;2.33;;;2.23;;
7977;SDS011;4034;48.004;10.902;2022-12-20T05:09:22;2.33;;;2.22;;
7977;SDS011;4034;48.004;10.902;2022-12-20T05:11:48;2.13;;;2.03;;
7977;SDS011;4034;48.004;10.902;2022-12-20T05:14:14;2.20;;;2.10;;
7977;SDS011;4034;48.004;10.902;2022-12-20T05:16:40;2.22;;;2.13;;
7977;SDS011;4034;48.004;10.902;2022-12-20T05:19:06;2.22;;;2.05;;
7977;SDS011;4034;48.004;10.902;2022-12-20T05:21:32;2.40;;;2.30;;
7977;SDS011;4034;48.004;10.902;2022-12-20T05:24:16;2.15;;;2.05;;
7977;SDS011;4034;48.004;10.902;2022-12-20T05:27:01;2.25;;;2.15;;
7977;SDS011;4034;48.004;10.902;2022-12-20T05:29:27;1.98;;;1.88;;
7977;SDS011;4034;48.004;10.902;2022-12-20T05:31:54;2.00;;;1.90;;
7977;SDS011;4034;48.004;10.902;2022-12-20T05:34:19;2.10;;;1.95;;
7977;SDS011;4034;48.004;10.902;2022-12-20T05:36:45;2.20;;;2.10;;
7977;SDS011;4034;48.004;10.902;2022-12-20T05:39:11;2.28;;;2.17;;
7977;SDS011;4034;48.004;10.902;2022-12-20T05:41:37;2.53;;;2.35;;
7977;SDS011;4034;48.004;10.902;2022-12-20T05:44:05;2.95;;;2.63;;
7977;SDS011;4034;48.004;10.902;2022-12-20T05:46:31;2.38;;;2.28;;
7977;SDS011;4034;48.004;10.902;2022-12-20T05:48:57;2.67;;;2.47;;
7977;SDS011;4034;48.004;10.902;2022-12-20T05:51:23;5.57;;;5.07;;
7977;SDS011;4034;48.004;10.902;2022-12-20T05:53:49;5.35;;;4.90;;
7977;SDS011;4034;48.004;10.902;2022-12-20T05:56:15;3.40;;;3.20;;
7977;SDS011;4034;48.004;10.902;2022-12-20T05:58:41;3.60;;;3.38;;
7977;SDS011;4034;48.004;10.902;2022-12-20T06:01:09;4.20;;;3.80;;
7977;SDS011;4034;48.004;10.902;2022-12-20T06:03:35;7.03;;;5.95;;
7977;SDS011;4034;48.004;10.902;2022-12-20T06:06:02;6.30;;;5.53;;
7977;SDS011;4034;48.004;10.902;2022-12-20T06:08:28;3.88;;;3.58;;
7977;SDS011;4034;48.004;10.902;2022-12-20T06:10:54;4.53;;;4.13;;
7977;SDS011;4034;48.004;10.902;2022-12-20T06:13:20;6.23;;;5.63;;
7977;SDS011;4034;48.004;10.902;2022-12-20T06:15:46;6.43;;;5.57;;
7977;SDS011;4034;48.004;10.902;2022-12-20T06:18:12;5.82;;;5.25;;
7977;SDS011;4034;48.004;10.902;2022-12-20T06:20:38;5.45;;;4.88;;
7977;SDS011;4034;48.004;10.902;2022-12-20T06:23:04;3.75;;;3.45;;
7977;SDS011;4034;48.004;10.902;2022-12-20T06:25:31;3.55;;;3.35;;
7977;SDS011;4034;48.004;10.902;2022-12-20T06:27:57;3.97;;;3.67;;
7977;SDS011;4034;48.004;10.902;2022-12-20T06:30:23;2.72;;;2.53;;
7977;SDS011;4034;48.004;10.902;2022-12-20T06:32:49;2.83;;;2.63;;
7977;SDS011;4034;48.004;10.902;2022-12-20T06:35:15;2.95;;;2.75;;
7977;SDS011;4034;48.004;10.902;2022-12-20T06:37:41;3.35;;;3.08;;
7977;SDS011;4034;48.004;10.902;2022-12-20T06:40:08;3.80;;;3.50;;
7977;SDS011;4034;48.004;10.902;2022-12-20T06:42:35;3.73;;;3.43;;
7977;SDS011;4034;48.004;10.902;2022-12-20T06:45:01;3.40;;;3.17;;
7977;SDS011;4034;48.004;10.902;2022-12-20T06:47:27;3.10;;;2.90;;
7977;SDS011;4034;48.004;10.902;2022-12-20T06:49:53;3.30;;;3.10;;
7977;SDS011;4034;48.004;10.902;2022-12-20T06:52:19;2.95;;;2.85;;
7977;SDS011;4034;48.004;10.902;2022-12-20T06:54:45;3.13;;;3.00;;
7977;SDS011;4034;48.004;10.902;2022-12-20T06:57:11;3.35;;;3.15;;
7977;SDS011;4034;48.004;10.902;2022-12-20T06:59:37;2.90;;;2.60;;
7977;SDS011;4034;48.004;10.902;2022-12-20T07:02:03;2.63;;;2.42;;
7977;SDS011;4034;48.004;10.902;2022-12-20T07:04:29;2.20;;;2.10;;
7977;SDS011;4034;48.004;10.902;2022-12-20T07:06:55;3.40;;;2.75;;
7977;SDS011;4034;48.004;10.902;2022-12-20T07:09:21;2.28;;;2.13;;
7977;SDS011;4034;48.004;10.902;2022-12-20T07:11:47;2.40;;;2.30;;
7977;SDS011;4034;48.004;10.902;2022-12-20T07:14:13;2.80;;;2.60;;
7977;SDS011;4034;48.004;10.902;2022-12-20T07:16:39;2.92;;;2.72;;
7977;SDS011;4034;48.004;10.902;2022-12-20T07:19:10;2.60;;;2.33;;
7977;SDS011;4034;48.004;10.902;2022-12-20T07:21:36;3.72;;;3.33;;
7977;SDS011;4034;48.004;10.902;2022-12-20T07:24:02;22.67;;;20.50;;
7977;SDS011;4034;48.004;10.902;2022-12-20T07:26:28;7.00;;;6.43;;
7977;SDS011;4034;48.004;10.902;2022-12-20T07:28:54;4.13;;;3.63;;
7977;SDS011;4034;48.004;10.902;2022-12-20T07:31:20;3.15;;;2.95;;
7977;SDS011;4034;48.004;10.902;2022-12-20T07:33:46;3.22;;;3.00;;
7977;SDS011;4034;48.004;10.902;2022-12-20T07:36:12;3.42;;;3.22;;
7977;SDS011;4034;48.004;10.902;2022-12-20T07:38:39;3.65;;;3.45;;
7977;SDS011;4034;48.004;10.902;2022-12-20T07:41:12;3.15;;;3.00;;
7977;SDS011;4034;48.004;10.902;2022-12-20T07:43:38;3.20;;;3.00;;
7977;SDS011;4034;48.004;10.902;2022-12-20T07:46:05;3.40;;;3.20;;
7977;SDS011;4034;48.004;10.902;2022-12-20T07:48:31;3.85;;;3.55;;
7977;SDS011;4034;48.004;10.902;2022-12-20T07:50:58;5.05;;;4.65;;
7977;SDS011;4034;48.004;10.902;2022-12-20T07:53:26;4.83;;;4.43;;
7977;SDS011;4034;48.004;10.902;2022-12-20T07:55:53;3.83;;;3.50;;
7977;SDS011;4034;48.004;10.902;2022-12-20T07:58:20;3.30;;;3.10;;
7977;SDS011;4034;48.004;10.902;2022-12-20T08:00:46;4.85;;;4.45;;
7977;SDS011;4034;48.004;10.902;2022-12-20T08:03:14;3.90;;;3.60;;
7977;SDS011;4034;48.004;10.902;2022-12-20T08:05:42;57.23;;;37.97;;
7977;SDS011;4034;48.004;10.902;2022-12-20T08:08:09;13.32;;;9.55;;
7977;SDS011;4034;48.004;10.902;2022-12-20T08:10:35;8.30;;;7.30;;
7977;SDS011;4034;48.004;10.902;2022-12-20T08:13:02;8.07;;;6.05;;
7977;SDS011;4034;48.004;10.902;2022-12-20T08:15:28;10.10;;;6.43;;
7977;SDS011;4034;48.004;10.902;2022-12-20T08:17:54;5.22;;;4.22;;
7977;SDS011;4034;48.004;10.902;2022-12-20T08:20:20;4.25;;;3.53;;
7977;SDS011;4034;48.004;10.902;2022-12-20T08:22:46;4.20;;;3.90;;
7977;SDS011;4034;48.004;10.902;2022-12-20T08:25:12;4.80;;;4.10;;
7977;SDS011;4034;48.004;10.902;2022-12-20T08:27:38;5.93;;;5.43;;
7977;SDS011;4034;48.004;10.902;2022-12-20T08:30:04;8.15;;;7.35;;
7977;SDS011;4034;48.004;10.902;2022-12-20T08:32:32;10.25;;;7.82;;
7977;SDS011;4034;48.004;10.902;2022-12-20T08:34:58;11.65;;;8.43;;
7977;SDS011;4034;48.004;10.902;2022-12-20T08:37:24;7.68;;;6.97;;
7977;SDS011;4034;48.004;10.902;2022-12-20T08:39:50;5.00;;;4.50;;
7977;SDS011;4034;48.004;10.902;2022-12-20T08:42:17;6.45;;;6.00;;
7977;SDS011;4034;48.004;10.902;2022-12-20T08:44:43;7.30;;;6.60;;
7977;SDS011;4034;48.004;10.902;2022-12-20T08:47:09;11.07;;;10.18;;
7977;SDS011;4034;48.004;10.902;2022-12-20T08:49:35;9.23;;;8.43;;
7977;SDS011;4034;48.004;10.902;2022-12-20T08:52:02;11.52;;;10.20;;
7977;SDS011;4034;48.004;10.902;2022-12-20T08:54:28;12.90;;;11.35;;
7977;SDS011;4034;48.004;10.902;2022-12-20T08:56:54;14.27;;;12.57;;
7977;SDS011;4034;48.004;10.902;2022-12-20T08:59:20;8.20;;;6.88;;
7977;SDS011;4034;48.004;10.902;2022-12-20T09:01:46;5.50;;;5.10;;
7977;SDS011;4034;48.004;10.902;2022-12-20T09:04:12;5.55;;;5.05;;
7977;SDS011;4034;48.004;10.902;2022-12-20T09:06:39;4.40;;;4.10;;
7977;SDS011;4034;48.004;10.902;2022-12-20T09:09:05;3.83;;;3.55;;
7977;SDS011;4034;48.004;10.902;2022-12-20T09:11:31;4.03;;;3.65;;
7977;SDS011;4034;48.004;10.902;2022-12-20T09:13:58;3.90;;;3.70;;
7977;SDS011;4034;48.004;10.902;2022-12-20T09:16:25;3.90;;;3.60;;
7977;SDS011;4034;48.004;10.902;2022-12-20T09:18:53;3.40;;;3.10;;
7977;SDS011;4034;48.004;10.902;2022-12-20T09:21:19;3.53;;;3.33;;
7977;SDS011;4034;48.004;10.902;2022-12-20T09:23:46;2.80;;;2.60;;
7977;SDS011;4034;48.004;10.902;2022-12-20T09:26:15;3.15;;;2.75;;
7977;SDS011;4034;48.004;10.902;2022-12-20T09:28:41;4.10;;;3.80;;
7977;SDS011;4034;48.004;10.902;2022-12-20T09:31:09;3.47;;;3.25;;
7977;SDS011;4034;48.004;10.902;2022-12-20T09:33:35;3.70;;;3.50;;
7977;SDS011;4034;48.004;10.902;2022-12-20T09:36:02;4.00;;;3.70;;
7977;SDS011;4034;48.004;10.902;2022-12-20T09:38:28;6.00;;;5.47;;
7977;SDS011;4034;48.004;10.902;2022-12-20T09:40:57;6.47;;;5.88;;
7977;SDS011;4034;48.004;10.902;2022-12-20T09:43:23;5.93;;;5.32;;
7977;SDS011;4034;48.004;10.902;2022-12-20T09:45:50;6.30;;;5.80;;
7977;SDS011;4034;48.004;10.902;2022-12-20T09:48:50;5.78;;;5.30;;
7977;SDS011;4034;48.004;10.902;2022-12-20T09:56:23;2.53;;;2.40;;
7977;SDS011;4034;48.004;10.902;2022-12-20T09:59:01;2.80;;;2.70;;
7977;SDS011;4034;48.004;10.902;2022-12-20T10:01:29;3.20;;;2.95;;
7977;SDS011;4034;48.004;10.902;2022-12-20T10:03:55;3.40;;;3.10;;
7977;SDS011;4034;48.004;10.902;2022-12-20T10:08:57;2.70;;;2.60;;
7977;SDS011;4034;48.004;10.902;2022-12-20T10:16:31;3.20;;;3.00;;
7977;SDS011;4034;48.004;10.902;2022-12-20T10:24:28;3.90;;;3.70;;
7977;SDS011;4034;48.004;10.902;2022-12-20T10:26:55;4.63;;;4.32;;
7977;SDS011;4034;48.004;10.902;2022-12-20T10:29:23;4.03;;;3.83;;
7977;SDS011;4034;48.004;10.902;2022-12-20T10:31:53;4.07;;;3.78;;
7977;SDS011;4034;48.004;10.902;2022-12-20T10:34:23;5.97;;;4.85;;
7977;SDS011;4034;48.004;10.902;2022-12-20T10:36:53;9.00;;;7.82;;
7977;SDS011;4034;48.004;10.902;2022-12-20T10:39:48;5.80;;;5.30;;
7977;SDS011;4034;48.004;10.902;2022-12-20T10:42:24;9.50;;;8.43;;
7977;SDS011;4034;48.004;10.902;2022-12-20T10:44:51;8.98;;;8.05;;
7977;SDS011;4034;48.004;10.902;2022-12-20T10:47:25;9.57;;;7.77;;
7977;SDS011;4034;48.004;10.902;2022-12-20T10:50:04;5.27;;;4.87;;
7977;SDS011;4034;48.004;10.902;2022-12-20T10:52:33;5.95;;;5.50;;
7977;SDS011;4034;48.004;10.902;2022-12-20T10:54:59;5.93;;;5.43;;
7977;SDS011;4034;48.004;10.902;2022-12-20T10:57:28;4.82;;;4.40;;
7977;SDS011;4034;48.004;10.902;2022-12-20T11:04:57;5.73;;;5.33;;
7977;SDS011;4034;48.004;10.902;2022-12-20T11:07:25;3.40;;;3.20;;
7977;SDS011;4034;48.004;10.902;2022-12-20T11:09:52;4.47;;;4.17;;
7977;SDS011;4034;48.004;10.902;2022-12-20T11:12:19;4.40;;;4.00;;
7977;SDS011;4034;48.004;10.902;2022-12-20T11:14:45;3.88;;;3.60;;
7977;SDS011;4034;48.004;10.902;2022-12-20T11:24:44;3.53;;;3.33;;
7977;SDS011;4034;48.004;10.902;2022-12-20T11:27:15;3.72;;;3.42;;
7977;SDS011;4034;48.004;10.902;2022-12-20T11:32:33;3.17;;;2.97;;
7977;SDS011;4034;48.004;10.902;2022-12-20T11:37:35;3.20;;;3.00;;
7977;SDS011;4034;48.004;10.902;2022-12-20T11:40:23;3.38;;;3.08;;
7977;SDS011;4034;48.004;10.902;2022-12-20T11:45:30;3.03;;;2.83;;
7977;SDS011;4034;48.004;10.902;2022-12-20T11:48:09;3.72;;;2.90;;
7977;SDS011;4034;48.004;10.902;2022-12-20T11:53:31;4.18;;;3.78;;
7977;SDS011;4034;48.004;10.902;2022-12-20T11:55:58;4.40;;;3.10;;
7977;SDS011;4034;48.004;10.902;2022-12-20T11:58:34;3.30;;;3.00;;
7977;SDS011;4034;48.004;10.902;2022-12-20T12:01:06;3.38;;;3.15;;
7977;SDS011;4034;48.004;10.902;2022-12-20T12:03:35;3.67;;;3.38;;
7977;SDS011;4034;48.004;10.902;2022-12-20T12:08:30;4.15;;;3.75;;
7977;SDS011;4034;48.004;10.902;2022-12-20T12:11:02;10.98;;;9.80;;
7977;SDS011;4034;48.004;10.902;2022-12-20T12:13:30;21.20;;;14.85;;
7977;SDS011;4034;48.004;10.902;2022-12-20T12:15:59;8.13;;;7.35;;
7977;SDS011;4034;48.004;10.902;2022-12-20T12:18:27;7.00;;;6.40;;
7977;SDS011;4034;48.004;10.902;2022-12-20T12:28:53;6.90;;;6.30;;
7977;SDS011;4034;48.004;10.902;2022-12-20T12:31:37;5.88;;;5.32;;
7977;SDS011;4034;48.004;10.902;2022-12-20T12:46:54;5.00;;;4.60;;
7977;SDS011;4034;48.004;10.902;2022-12-20T12:49:23;4.45;;;4.03;;
7977;SDS011;4034;48.004;10.902;2022-12-20T12:51:55;4.95;;;4.30;;
7977;SDS011;4034;48.004;10.902;2022-12-20T12:54:23;4.35;;;4.05;;
7977;SDS011;4034;48.004;10.902;2022-12-20T12:56:50;4.97;;;4.40;;
7977;SDS011;4034;48.004;10.902;2022-12-20T12:59:21;4.70;;;4.40;;
7977;SDS011;4034;48.004;10.902;2022-12-20T13:11:50;5.95;;;5.00;;
7977;SDS011;4034;48.004;10.902;2022-12-20T13:16:43;37.35;;;26.50;;
7977;SDS011;4034;48.004;10.902;2022-12-20T13:21:45;32.85;;;23.45;;
7977;SDS011;4034;48.004;10.902;2022-12-20T13:24:33;18.83;;;15.45;;
7977;SDS011;4034;48.004;10.902;2022-12-20T13:27:00;5.60;;;5.10;;
7977;SDS011;4034;48.004;10.902;2022-12-20T13:29:28;6.43;;;4.68;;
7977;SDS011;4034;48.004;10.902;2022-12-20T13:31:57;4.40;;;4.00;;
7977;SDS011;4034;48.004;10.902;2022-12-20T13:34:34;5.93;;;5.43;;
7977;SDS011;4034;48.004;10.902;2022-12-20T13:37:02;4.70;;;4.30;;
7977;SDS011;4034;48.004;10.902;2022-12-20T13:39:30;5.82;;;5.32;;
7977;SDS011;4034;48.004;10.902;2022-12-20T13:42:17;7.00;;;6.40;;
7977;SDS011;4034;48.004;10.902;2022-12-20T13:44:47;6.68;;;6.07;;
7977;SDS011;4034;48.004;10.902;2022-12-20T13:49:41;4.45;;;4.05;;
7977;SDS011;4034;48.004;10.902;2022-12-20T13:54:40;4.80;;;4.40;;
7977;SDS011;4034;48.004;10.902;2022-12-20T13:57:07;4.50;;;4.20;;
7977;SDS011;4034;48.004;10.902;2022-12-20T13:59:34;5.03;;;4.63;;
7977;SDS011;4034;48.004;10.902;2022-12-20T14:02:02;4.82;;;4.43;;
7977;SDS011;4034;48.004;10.902;2022-12-20T14:04:42;4.97;;;4.47;;
7977;SDS011;4034;48.004;10.902;2022-12-20T14:07:13;5.05;;;4.70;;
7977;SDS011;4034;48.004;10.902;2022-12-20T14:09:43;4.85;;;4.45;;
7977;SDS011;4034;48.004;10.902;2022-12-20T14:12:13;4.68;;;4.28;;
7977;SDS011;4034;48.004;10.902;2022-12-20T14:14:43;4.70;;;4.30;;
7977;SDS011;4034;48.004;10.902;2022-12-20T14:17:26;5.63;;;5.13;;
7977;SDS011;4034;48.004;10.902;2022-12-20T14:20:03;5.78;;;5.25;;
7977;SDS011;4034;48.004;10.902;2022-12-20T14:22:29;4.95;;;4.55;;
7977;SDS011;4034;48.004;10.902;2022-12-20T14:24:55;6.97;;;6.10;;
7977;SDS011;4034;48.004;10.902;2022-12-20T14:27:21;6.45;;;5.47;;
7977;SDS011;4034;48.004;10.902;2022-12-20T14:29:48;5.55;;;4.95;;
7977;SDS011;4034;48.004;10.902;2022-12-20T14:32:16;5.68;;;4.97;;
7977;SDS011;4034;48.004;10.902;2022-12-20T14:34:43;8.80;;;6.25;;
7977;SDS011;4034;48.004;10.902;2022-12-20T14:40:14;6.28;;;5.60;;
7977;SDS011;4034;48.004;10.902;2022-12-20T14:42:41;8.18;;;6.25;;
7977;SDS011;4034;48.004;10.902;2022-12-20T14:50:19;7.05;;;5.45;;
7977;SDS011;4034;48.004;10.902;2022-12-20T14:52:46;9.35;;;5.50;;
7977;SDS011;4034;48.004;10.902;2022-12-20T14:55:14;8.02;;;5.80;;
7977;SDS011;4034;48.004;10.902;2022-12-20T14:57:45;8.63;;;6.70;;
7977;SDS011;4034;48.004;10.902;2022-12-20T15:00:29;10.63;;;8.13;;
7977;SDS011;4034;48.004;10.902;2022-12-20T15:10:34;11.90;;;10.15;;
7977;SDS011;4034;48.004;10.902;2022-12-20T15:13:00;11.07;;;8.50;;
7977;SDS011;4034;48.004;10.902;2022-12-20T15:15:26;10.75;;;7.82;;
7977;SDS011;4034;48.004;10.902;2022-12-20T15:17:52;10.23;;;8.17;;
7977;SDS011;4034;48.004;10.902;2022-12-20T15:20:18;10.90;;;8.43;;
7977;SDS011;4034;48.004;10.902;2022-12-20T15:22:45;12.25;;;9.05;;
7977;SDS011;4034;48.004;10.902;2022-12-20T15:25:14;14.43;;;11.95;;
7977;SDS011;4034;48.004;10.902;2022-12-20T15:27:41;13.80;;;11.27;;
7977;SDS011;4034;48.004;10.902;2022-12-20T15:30:11;12.25;;;8.77;;
7977;SDS011;4034;48.004;10.902;2022-12-20T15:32:40;12.93;;;9.13;;
7977;SDS011;4034;48.004;10.902;2022-12-20T15:35:13;11.45;;;8.75;;
7977;SDS011;4034;48.004;10.902;2022-12-20T15:37:40;14.35;;;9.35;;
7977;SDS011;4034;48.004;10.902;2022-12-20T15:40:09;11.68;;;9.02;;
7977;SDS011;4034;48.004;10.902;2022-12-20T15:42:35;14.07;;;10.02;;
7977;SDS011;4034;48.004;10.902;2022-12-20T15:45:01;13.13;;;9.50;;
7977;SDS011;4034;48.004;10.902;2022-12-20T15:47:27;8.60;;;7.50;;
7977;SDS011;4034;48.004;10.902;2022-12-20T15:49:53;9.80;;;8.05;;
7977;SDS011;4034;48.004;10.902;2022-12-20T15:52:20;10.85;;;8.10;;
7977;SDS011;4034;48.004;10.902;2022-12-20T15:54:47;11.10;;;8.50;;
7977;SDS011;4034;48.004;10.902;2022-12-20T15:57:13;11.50;;;9.07;;
7977;SDS011;4034;48.004;10.902;2022-12-20T15:59:40;18.05;;;15.90;;
7977;SDS011;4034;48.004;10.902;2022-12-20T16:04:44;15.80;;;12.13;;
7977;SDS011;4034;48.004;10.902;2022-12-20T16:07:10;12.50;;;9.52;;
7977;SDS011;4034;48.004;10.902;2022-12-20T16:09:36;11.25;;;8.70;;
7977;SDS011;4034;48.004;10.902;2022-12-20T16:12:03;17.63;;;13.00;;
7977;SDS011;4034;48.004;10.902;2022-12-20T16:14:29;49.10;;;27.20;;
7977;SDS011;4034;48.004;10.902;2022-12-20T16:16:55;9.68;;;7.65;;
7977;SDS011;4034;48.004;10.902;2022-12-20T16:19:21;8.55;;;7.63;;
7977;SDS011;4034;48.004;10.902;2022-12-20T16:21:49;8.10;;;6.97;;
7977;SDS011;4034;48.004;10.902;2022-12-20T16:24:16;10.80;;;8.80;;
7977;SDS011;4034;48.004;10.902;2022-12-20T16:26:42;15.38;;;9.88;;
7977;SDS011;4034;48.004;10.902;2022-12-20T16:29:09;21.70;;;19.50;;
7977;SDS011;4034;48.004;10.902;2022-12-20T16:31:38;20.67;;;18.27;;
7977;SDS011;4034;48.004;10.902;2022-12-20T16:34:09;24.25;;;21.65;;
7977;SDS011;4034;48.004;10.902;2022-12-20T16:36:36;23.05;;;20.25;;
7977;SDS011;4034;48.004;10.902;2022-12-20T16:39:02;41.35;;;33.20;;
7977;SDS011;4034;48.004;10.902;2022-12-20T16:41:29;35.13;;;26.77;;
7977;SDS011;4034;48.004;10.902;2022-12-20T16:43:56;20.48;;;16.60;;
7977;SDS011;4034;48.004;10.902;2022-12-20T16:46:23;31.35;;;26.90;;
7977;SDS011;4034;48.004;10.902;2022-12-20T16:48:51;28.65;;;23.38;;
7977;SDS011;4034;48.004;10.902;2022-12-20T16:51:21;19.75;;;17.10;;
7977;SDS011;4034;48.004;10.902;2022-12-20T16:53:52;17.03;;;14.23;;
7977;SDS011;4034;48.004;10.902;2022-12-20T16:56:18;14.23;;;12.55;;
7977;SDS011;4034;48.004;10.902;2022-12-20T16:58:44;23.25;;;17.50;;
7977;SDS011;4034;48.004;10.902;2022-12-20T17:01:14;23.50;;;18.58;;
7977;SDS011;4034;48.004;10.902;2022-12-20T17:03:41;28.10;;;19.85;;